Time;durP1;ratioP1;P1;durP2;ratioP2;P2;SDS_P1;SDS_P2;PMS_P1;PMS_P2;Temp;Humidity;BMP_temperature;BMP_pressure;BME280_temperature;BME280_humidity;BME280_pressure;Samples;Min_cycle;Max_cycle;Signal;HPM_P1;HPM_P2
2023/01/14 00:02:25;;;;;;;33.90;5.15;;;10.00;99.90;;;;;;5050390;28;20101;-59
2023/01/14 00:04:50;;;;;;;39.38;6.88;;;10.00;99.90;;;;;;5049886;28;20045;-59
2023/01/14 00:07:16;;;;;;;27.50;5.05;;;10.10;99.90;;;;;;5051458;28;20113;-59
2023/01/14 00:09:42;;;;;;;35.28;5.85;;;10.40;99.90;;;;;;5051104;28;20037;-60
2023/01/14 00:12:08;;;;;;;32.58;6.03;;;10.10;99.90;;;;;;5052070;28;20452;-59
2023/01/14 00:14:33;;;;;;;37.90;5.90;;;10.30;99.90;;;;;;5036304;28;20034;-60
2023/01/14 00:17:00;;;;;;;44.75;6.88;;;10.10;99.90;;;;;;5032184;28;20046;-59
2023/01/14 00:19:26;;;;;;;39.75;5.90;;;10.10;99.90;;;;;;5032229;28;20030;-60
2023/01/14 00:21:54;;;;;;;40.13;6.75;;;10.10;99.90;;;;;;5032047;28;20377;-59
2023/01/14 00:24:21;;;;;;;40.67;6.20;;;10.10;99.90;;;;;;5032891;28;20128;-60
2023/01/14 00:26:53;;;;;;;33.67;6.47;;;10.30;99.90;;;;;;5042691;28;20037;-59
2023/01/14 00:29:22;;;;;;;31.83;5.93;;;10.20;99.90;;;;;;5043651;28;20076;-59
2023/01/14 00:31:48;;;;;;;34.20;5.80;;;10.40;99.90;;;;;;5032375;28;20049;-59
2023/01/14 00:34:15;;;;;;;45.28;6.43;;;10.10;99.90;;;;;;5032224;28;20037;-59
2023/01/14 00:36:43;;;;;;;47.33;7.32;;;10.20;99.90;;;;;;5051734;28;20068;-60
2023/01/14 00:39:08;;;;;;;35.20;7.07;;;10.20;99.90;;;;;;5051669;28;20036;-60
2023/01/14 00:41:34;;;;;;;29.27;6.35;;;10.20;99.90;;;;;;5051790;28;20033;-59
2023/01/14 00:44:00;;;;;;;32.78;6.50;;;10.10;99.90;;;;;;5051496;28;20124;-60
2023/01/14 00:46:28;;;;;;;38.67;6.43;;;10.30;99.90;;;;;;5035871;28;20079;-59
2023/01/14 00:48:54;;;;;;;36.13;6.80;;;10.40;99.90;;;;;;5040523;28;20037;-59
2023/01/14 00:51:20;;;;;;;34.95;6.57;;;10.40;99.90;;;;;;5031771;28;20552;-59
2023/01/14 00:53:47;;;;;;;36.80;6.78;;;10.40;99.90;;;;;;5046705;28;20040;-61
2023/01/14 00:56:14;;;;;;;35.33;6.22;;;10.10;99.90;;;;;;5034799;28;20062;-59
2023/01/14 00:58:40;;;;;;;45.72;7.90;;;10.20;99.90;;;;;;5047933;28;20053;-59
2023/01/14 01:01:05;;;;;;;34.60;6.28;;;10.10;99.90;;;;;;5050136;28;20040;-59
2023/01/14 01:03:32;;;;;;;32.25;5.95;;;10.20;99.90;;;;;;5053477;28;20563;-59
2023/01/14 01:05:58;;;;;;;38.92;6.22;;;10.20;99.90;;;;;;5047183;28;20053;-60
2023/01/14 01:08:24;;;;;;;35.28;5.75;;;10.30;99.90;;;;;;5035127;28;20076;-59
2023/01/14 01:10:52;;;;;;;35.55;7.22;;;10.20;99.90;;;;;;5035266;28;20037;-60
2023/01/14 01:13:18;;;;;;;36.08;6.20;;;10.20;99.90;;;;;;5035251;28;20049;-59
2023/01/14 01:15:44;;;;;;;39.40;6.68;;;10.20;99.90;;;;;;5041832;28;20506;-60
2023/01/14 01:18:11;;;;;;;32.60;7.50;;;10.30;99.90;;;;;;5054213;28;20045;-59
2023/01/14 01:20:37;;;;;;;38.28;6.85;;;10.10;99.90;;;;;;5053663;28;20059;-59
2023/01/14 01:23:04;;;;;;;36.63;6.07;;;10.20;99.90;;;;;;5045585;28;20450;-59
2023/01/14 01:25:29;;;;;;;42.22;7.18;;;10.10;99.90;;;;;;5039636;28;20063;-59
2023/01/14 01:27:56;;;;;;;36.65;7.25;;;10.20;99.90;;;;;;5042688;28;20053;-59
2023/01/14 01:30:23;;;;;;;40.78;6.88;;;10.20;99.90;;;;;;5049002;28;20082;-60
2023/01/14 01:32:48;;;;;;;38.22;6.50;;;10.40;99.90;;;;;;5038955;28;20037;-59
2023/01/14 01:35:14;;;;;;;34.88;6.25;;;10.10;99.90;;;;;;5037092;28;20052;-59
2023/01/14 01:37:39;;;;;;;31.65;6.13;;;10.20;99.90;;;;;;5054580;28;20494;-59
2023/01/14 01:40:06;;;;;;;32.88;6.10;;;10.00;99.90;;;;;;5054375;28;20436;-59
2023/01/14 01:42:34;;;;;;;30.75;5.95;;;9.90;99.90;;;;;;5054417;28;20128;-60
2023/01/14 01:45:20;;;;;;;33.65;6.25;;;10.00;99.90;;;;;;5053840;28;20055;-60
2023/01/14 01:47:49;;;;;;;36.97;6.30;;;10.10;99.90;;;;;;5034802;28;20048;-59
2023/01/14 01:50:14;;;;;;;33.88;6.30;;;10.20;99.90;;;;;;5034413;28;20507;-59
2023/01/14 01:52:40;;;;;;;30.85;6.18;;;10.10;99.90;;;;;;5040326;28;20037;-59
2023/01/14 01:55:09;;;;;;;32.47;6.20;;;10.10;99.90;;;;;;5045574;28;20050;-60
2023/01/14 01:57:36;;;;;;;40.80;6.78;;;9.90;99.90;;;;;;5052550;28;20040;-60
2023/01/14 02:00:07;;;;;;;30.35;6.00;;;9.80;99.90;;;;;;5054160;28;20119;-59
2023/01/14 02:02:33;;;;;;;34.10;5.78;;;9.90;99.90;;;;;;5051208;28;20458;-59
2023/01/14 02:04:59;;;;;;;33.30;5.95;;;10.00;99.90;;;;;;5053824;28;20147;-60
2023/01/14 02:07:25;;;;;;;30.10;6.20;;;10.00;99.90;;;;;;5034460;28;20046;-60
2023/01/14 02:09:58;;;;;;;39.00;6.90;;;10.20;99.90;;;;;;5034092;28;20498;-60
2023/01/14 02:12:32;;;;;;;34.53;6.05;;;10.10;99.90;;;;;;5035274;28;20053;-60
2023/01/14 02:15:23;;;;;;;36.50;5.93;;;10.00;99.90;;;;;;5033797;28;20042;-60
2023/01/14 02:18:15;;;;;;;30.38;6.45;;;10.00;99.90;;;;;;5033717;28;20057;-59
2023/01/14 02:21:16;;;;;;;34.75;5.63;;;9.80;99.90;;;;;;5032849;28;20128;-59
2023/01/14 02:24:10;;;;;;;34.72;5.85;;;10.00;99.90;;;;;;5033728;28;20060;-60
2023/01/14 02:27:05;;;;;;;29.90;6.10;;;10.00;99.90;;;;;;5034088;28;20130;-59
2023/01/14 02:29:49;;;;;;;36.75;6.28;;;10.10;99.90;;;;;;5041368;28;20040;-59
2023/01/14 02:32:40;;;;;;;29.30;6.38;;;9.90;99.90;;;;;;5052993;28;20071;-60
2023/01/14 02:35:18;;;;;;;40.42;5.95;;;9.80;99.90;;;;;;5043091;28;20050;-59
2023/01/14 02:37:59;;;;;;;24.95;5.10;;;9.70;99.90;;;;;;5033585;28;20430;-59
2023/01/14 02:40:37;;;;;;;31.67;5.65;;;9.70;99.90;;;;;;5033381;28;20037;-60
2023/01/14 02:46:13;;;;;;;30.48;5.45;;;9.60;99.90;;;;;;5039083;28;20521;-60
2023/01/14 02:48:40;;;;;;;31.58;6.03;;;9.70;99.90;;;;;;5053081;28;20037;-59
2023/01/14 02:51:06;;;;;;;32.15;5.60;;;9.70;99.90;;;;;;5053489;28;20501;-60
2023/01/14 02:53:32;;;;;;;32.90;5.63;;;9.60;99.90;;;;;;5053056;28;20040;-59
2023/01/14 02:55:58;;;;;;;34.58;6.40;;;9.50;99.90;;;;;;5043348;28;20044;-60
2023/01/14 02:58:34;;;;;;;31.23;5.63;;;9.30;99.90;;;;;;5039957;28;20033;-59
2023/01/14 03:01:14;;;;;;;34.13;6.07;;;9.10;99.90;;;;;;5051703;28;20064;-59
2023/01/14 03:03:52;;;;;;;44.80;7.03;;;9.20;99.90;;;;;;5053346;28;20029;-59
2023/01/14 03:06:17;;;;;;;37.47;6.13;;;9.30;99.90;;;;;;5043307;28;20053;-60
2023/01/14 03:09:24;;;;;;;35.22;6.85;;;9.20;99.90;;;;;;5032896;28;20056;-59
2023/01/14 03:11:59;;;;;;;35.05;6.43;;;9.20;99.90;;;;;;5032942;28;20057;-59
2023/01/14 03:14:38;;;;;;;32.38;6.75;;;9.10;99.90;;;;;;5032969;28;20092;-59
2023/01/14 03:17:17;;;;;;;37.30;5.60;;;8.70;99.90;;;;;;5041982;28;20119;-60
2023/01/14 03:19:50;;;;;;;32.40;5.85;;;8.50;99.90;;;;;;5039874;28;20037;-59
2023/01/14 03:22:16;;;;;;;33.88;5.53;;;8.40;99.90;;;;;;5039496;28;20099;-59
2023/01/14 03:24:44;;;;;;;37.17;6.28;;;8.70;99.90;;;;;;5032560;28;20037;-60
2023/01/14 03:27:18;;;;;;;30.65;6.70;;;8.80;99.90;;;;;;5042932;28;20033;-60
2023/01/14 03:29:50;;;;;;;34.72;6.32;;;8.90;99.90;;;;;;5052196;28;20433;-59
2023/01/14 03:32:27;;;;;;;25.65;4.75;;;8.90;99.90;;;;;;5034115;28;20068;-59
2023/01/14 03:35:05;;;;;;;33.50;5.60;;;8.80;99.90;;;;;;5032679;28;20045;-59
2023/01/14 03:37:31;;;;;;;25.08;5.97;;;8.50;99.90;;;;;;5046800;28;20463;-59
2023/01/14 03:40:01;;;;;;;31.38;6.05;;;8.60;99.90;;;;;;5051698;28;20029;-59
2023/01/14 03:42:32;;;;;;;33.45;5.70;;;8.50;99.90;;;;;;5052390;28;20029;-60
2023/01/14 03:45:00;;;;;;;23.98;4.47;;;8.80;99.90;;;;;;5044325;28;20045;-60
2023/01/14 03:47:31;;;;;;;27.98;6.43;;;8.90;99.90;;;;;;5045486;28;20045;-59
2023/01/14 03:50:00;;;;;;;29.33;4.97;;;8.80;99.90;;;;;;5052227;28;20068;-59
2023/01/14 03:52:57;;;;;;;28.10;5.38;;;9.10;99.90;;;;;;5039320;28;20044;-59
2023/01/14 03:55:53;;;;;;;30.30;5.85;;;8.90;99.90;;;;;;5031028;28;20514;-59
2023/01/14 03:58:44;;;;;;;29.02;4.95;;;8.90;99.90;;;;;;5032560;28;20037;-60
2023/01/14 04:01:28;;;;;;;23.02;4.70;;;9.00;99.90;;;;;;5028608;28;20049;-59
2023/01/14 04:03:55;;;;;;;32.30;5.18;;;8.90;99.90;;;;;;5050653;28;20399;-59
2023/01/14 04:06:20;;;;;;;25.02;5.32;;;8.90;99.90;;;;;;5050192;28;20184;-59
2023/01/14 04:08:46;;;;;;;24.23;4.93;;;9.00;99.90;;;;;;5052255;28;20513;-60
2023/01/14 04:11:12;;;;;;;37.30;6.22;;;8.90;99.90;;;;;;5051980;28;20406;-59
2023/01/14 04:16:22;;;;;;;26.33;5.18;;;8.60;99.90;;;;;;5047622;28;20080;-59
2023/01/14 04:18:47;;;;;;;26.33;5.47;;;8.40;99.90;;;;;;5032353;28;20049;-59
2023/01/14 04:21:13;;;;;;;24.65;5.10;;;8.40;99.90;;;;;;5033329;28;20034;-60
2023/01/14 04:23:38;;;;;;;29.00;4.93;;;8.70;99.90;;;;;;5031258;28;20465;-60
2023/01/14 04:26:04;;;;;;;29.95;4.22;;;8.50;99.90;;;;;;5032982;28;20514;-59
2023/01/14 04:28:30;;;;;;;28.50;4.68;;;8.60;99.90;;;;;;5051672;28;20556;-59
2023/01/14 04:30:55;;;;;;;29.48;5.30;;;8.50;1.00;;;;;;5051159;28;20120;-59
2023/01/14 04:33:21;;;;;;;23.95;4.97;;;8.80;1.00;;;;;;5051922;28;20045;-59
2023/01/14 04:35:48;;;;;;;18.10;4.20;;;8.50;1.00;;;;;;5051728;28;20456;-59
2023/01/14 04:38:15;;;;;;;29.58;5.32;;;8.60;1.00;;;;;;5035145;28;20451;-59
2023/01/14 04:40:40;;;;;;;27.50;5.45;;;8.40;1.00;;;;;;5035720;28;20403;-60
2023/01/14 04:43:06;;;;;;;34.28;5.88;;;8.60;1.00;;;;;;5035837;28;20033;-59
2023/01/14 04:45:32;;;;;;;28.63;6.45;;;8.60;1.00;;;;;;5035620;28;20045;-60
2023/01/14 04:47:57;;;;;;;29.05;5.70;;;8.70;1.00;;;;;;5037154;28;20048;-59
2023/01/14 04:50:32;;;;;;;39.90;6.40;;;8.70;1.00;;;;;;5035573;28;20037;-60
2023/01/14 04:53:09;;;;;;;37.95;6.55;;;8.90;1.00;;;;;;5044092;28;20059;-59
2023/01/14 04:55:39;;;;;;;31.50;4.85;;;8.90;1.00;;;;;;5054127;28;20052;-60
2023/01/14 04:58:07;;;;;;;35.20;5.35;;;8.60;1.00;;;;;;5052235;28;20033;-59
2023/01/14 05:00:33;;;;;;;33.00;5.45;;;8.50;1.00;;;;;;5042223;28;20486;-59
2023/01/14 05:03:02;;;;;;;27.50;5.18;;;9.00;1.00;;;;;;5044588;28;20482;-59
2023/01/14 05:05:28;;;;;;;22.33;5.00;;;9.00;1.00;;;;;;5055185;28;20057;-59
2023/01/14 05:07:53;;;;;;;22.35;4.05;;;8.80;1.00;;;;;;5039869;28;20064;-59
2023/01/14 05:10:19;;;;;;;26.60;4.53;;;9.10;1.00;;;;;;5045864;28;20068;-59
2023/01/14 05:12:55;;;;;;;29.33;5.57;;;8.80;1.00;;;;;;5055122;28;20149;-58
2023/01/14 05:15:23;;;;;;;31.23;5.40;;;9.00;1.00;;;;;;5042205;28;20045;-59
2023/01/14 05:17:49;;;;;;;31.42;6.03;;;8.80;10.90;;;;;;5035352;28;20033;-59
2023/01/14 05:20:14;;;;;;;31.02;5.82;;;9.00;19.80;;;;;;5035224;28;20041;-60
2023/01/14 05:22:40;;;;;;;20.30;4.82;;;8.70;63.30;;;;;;5035186;28;20486;-59
2023/01/14 05:25:06;;;;;;;28.67;5.28;;;8.60;98.80;;;;;;5039636;28;20041;-60
2023/01/14 05:27:33;;;;;;;29.17;5.55;;;9.20;99.90;;;;;;5039163;28;20041;-60
2023/01/14 05:29:59;;;;;;;30.13;5.50;;;9.20;99.90;;;;;;5046403;28;20120;-60
2023/01/14 05:32:25;;;;;;;27.33;5.95;;;8.70;99.90;;;;;;5054787;28;20057;-60
2023/01/14 05:34:50;;;;;;;31.90;5.20;;;8.90;99.90;;;;;;5052730;28;20095;-59
2023/01/14 05:37:16;;;;;;;25.50;5.07;;;9.10;99.90;;;;;;5034854;28;20045;-59
2023/01/14 05:39:41;;;;;;;25.88;5.03;;;8.70;99.90;;;;;;5033309;28;20033;-59
2023/01/14 05:47:35;;;;;;;31.35;5.18;;;9.30;99.90;;;;;;5054719;28;20048;-59
2023/01/14 05:50:01;;;;;;;25.60;4.38;;;8.90;99.90;;;;;;5053879;28;20032;-60
2023/01/14 05:52:26;;;;;;;18.08;4.00;;;9.30;99.90;;;;;;5054045;28;20055;-59
2023/01/14 05:54:52;;;;;;;24.15;4.53;;;9.20;99.90;;;;;;5052051;28;20367;-59
2023/01/14 05:57:17;;;;;;;20.63;4.53;;;9.10;99.90;;;;;;5034271;28;20075;-60
2023/01/14 05:59:43;;;;;;;28.08;5.05;;;9.20;99.90;;;;;;5034329;28;20041;-60
2023/01/14 06:07:38;;;;;;;18.80;3.38;;;9.10;1.00;;;;;;5045700;28;20124;-60
2023/01/14 06:10:04;;;;;;;29.15;4.63;;;9.40;1.00;;;;;;5034241;28;20139;-59
2023/01/14 06:12:39;;;;;;;24.48;4.90;;;9.30;99.90;;;;;;5033760;28;20041;-60
2023/01/14 06:15:05;;;;;;;26.58;4.88;;;9.20;99.90;;;;;;5036464;28;20053;-59
2023/01/14 06:17:44;;;;;;;33.63;5.53;;;9.30;99.90;;;;;;5072081;28;20082;-60
2023/01/14 06:20:10;;;;;;;19.42;4.20;;;9.20;99.90;;;;;;5053787;28;20064;-60
2023/01/14 06:22:36;;;;;;;26.67;5.32;;;8.80;99.90;;;;;;5032615;28;20491;-60
2023/01/14 06:25:01;;;;;;;36.08;6.32;;;9.40;99.90;;;;;;5035586;28;20037;-59
2023/01/14 06:27:27;;;;;;;22.02;4.78;;;9.30;99.90;;;;;;5053764;28;20041;-60
2023/01/14 06:29:52;;;;;;;24.42;5.03;;;9.30;99.90;;;;;;5041073;28;20044;-59
2023/01/14 06:32:18;;;;;;;23.92;5.82;;;9.10;99.90;;;;;;5033563;28;20042;-59
2023/01/14 06:34:43;;;;;;;28.00;4.70;;;9.10;99.90;;;;;;5033776;28;20034;-60
2023/01/14 06:37:09;;;;;;;30.95;5.75;;;9.40;99.90;;;;;;5053225;28;20487;-61
2023/01/14 06:39:35;;;;;;;24.20;4.63;;;9.40;99.90;;;;;;5053190;28;20081;-59
2023/01/14 06:42:00;;;;;;;22.60;4.93;;;9.30;99.90;;;;;;5053431;28;20041;-59
2023/01/14 06:44:27;;;;;;;20.17;4.55;;;9.50;99.90;;;;;;5053186;28;20055;-59
2023/01/14 06:46:52;;;;;;;31.83;6.63;;;9.30;99.90;;;;;;5035749;28;20057;-60
2023/01/14 06:49:18;;;;;;;29.45;6.18;;;9.60;99.90;;;;;;5033665;28;21135;-59
2023/01/14 06:51:43;;;;;;;21.48;4.80;;;9.50;99.90;;;;;;5033487;28;20048;-59
2023/01/14 06:54:10;;;;;;;20.90;5.40;;;9.40;99.90;;;;;;5051051;28;20128;-59
2023/01/14 06:56:35;;;;;;;24.20;5.10;;;9.60;99.90;;;;;;5036742;28;20053;-59
2023/01/14 06:59:01;;;;;;;23.17;5.45;;;9.00;99.90;;;;;;5033115;28;20037;-59
2023/01/14 07:01:26;;;;;;;19.23;5.10;;;9.60;99.90;;;;;;5044832;28;20120;-60
2023/01/14 07:03:52;;;;;;;23.60;5.88;;;9.20;99.90;;;;;;5052952;28;20033;-59
2023/01/14 07:06:17;;;;;;;37.88;6.47;;;9.70;99.90;;;;;;5040494;28;20053;-59
2023/01/14 07:08:43;;;;;;;17.17;4.75;;;9.30;99.90;;;;;;5051846;28;20103;-60
2023/01/14 07:11:11;;;;;;;32.05;5.90;;;9.30;99.90;;;;;;5052799;28;20075;-59
2023/01/14 07:13:37;;;;;;;32.70;6.28;;;9.30;99.90;;;;;;5052858;28;20051;-60
2023/01/14 07:16:03;;;;;;;22.98;5.72;;;9.50;99.90;;;;;;5042652;28;20033;-60
2023/01/14 07:18:29;;;;;;;35.53;6.28;;;9.60;99.90;;;;;;5032875;28;20042;-59
2023/01/14 07:20:57;;;;;;;23.50;5.40;;;9.30;1.00;;;;;;5048628;28;20493;-59
2023/01/14 07:23:23;;;;;;;30.20;7.88;;;9.80;1.00;;;;;;5052760;28;20036;-59
2023/01/14 07:25:48;;;;;;;31.08;7.55;;;9.20;15.10;;;;;;5045143;28;20072;-60
2023/01/14 07:28:14;;;;;;;36.28;7.00;;;9.90;94.00;;;;;;5033889;28;20065;-60
2023/01/14 07:30:40;;;;;;;25.23;6.50;;;9.90;99.90;;;;;;5036034;28;20041;-60
2023/01/14 07:33:05;;;;;;;25.85;6.68;;;9.40;99.90;;;;;;5032602;28;20120;-60
2023/01/14 07:35:31;;;;;;;18.35;5.50;;;9.80;99.90;;;;;;5033778;28;20052;-60
2023/01/14 07:37:58;;;;;;;25.35;6.82;;;9.70;99.90;;;;;;5032775;28;20044;-60
2023/01/14 07:40:25;;;;;;;28.88;5.85;;;9.90;99.90;;;;;;5037869;28;20103;-60
2023/01/14 07:42:58;;;;;;;22.58;5.72;;;8.80;99.90;;;;;;5031086;28;20148;-60
2023/01/14 07:45:24;;;;;;;22.33;4.88;;;9.50;1.00;;;;;;5039476;28;20047;-61
2023/01/14 07:47:50;;;;;;;31.75;5.97;;;9.30;1.00;;;;;;5047381;28;20402;-60
2023/01/14 07:50:17;;;;;;;30.08;5.82;;;9.00;1.00;;;;;;5045986;28;20041;-61
2023/01/14 07:52:42;;;;;;;14.60;5.00;;;9.90;1.00;;;;;;5043605;28;20091;-60
2023/01/14 07:55:08;;;;;;;28.90;5.20;;;8.70;19.60;;;;;;5034703;28;20045;-61
2023/01/14 07:57:34;;;;;;;22.67;5.00;;;8.60;81.20;;;;;;5041663;28;20075;-61
2023/01/14 07:59:59;;;;;;;29.25;4.85;;;9.80;96.30;;;;;;5038206;28;20040;-61
2023/01/14 08:02:25;;;;;;;29.00;5.70;;;10.00;99.90;;;;;;5032230;28;20042;-61
2023/01/14 08:04:50;;;;;;;23.08;5.15;;;9.20;99.90;;;;;;5032328;28;20120;-60
2023/01/14 08:07:16;;;;;;;22.40;4.50;;;8.60;99.90;;;;;;5045364;28;20045;-60
2023/01/14 08:09:41;;;;;;;20.05;4.72;;;8.70;99.90;;;;;;5049510;28;20067;-61
2023/01/14 08:12:07;;;;;;;26.45;5.18;;;8.60;99.90;;;;;;5033807;28;20484;-61
2023/01/14 08:14:32;;;;;;;30.80;6.03;;;9.10;99.90;;;;;;5037272;28;20383;-61
2023/01/14 08:17:02;;;;;;;24.92;4.80;;;8.60;1.00;;;;;;5036865;28;20045;-60
2023/01/14 08:19:28;;;;;;;23.80;4.68;;;8.40;1.00;;;;;;5036549;28;20042;-61
2023/01/14 08:21:53;;;;;;;29.63;5.68;;;8.40;1.00;;;;;;5036676;28;20040;-61
2023/01/14 08:24:19;;;;;;;23.42;4.97;;;9.50;1.00;;;;;;5036484;28;20065;-61
2023/01/14 08:26:44;;;;;;;22.98;4.75;;;10.50;1.00;;;;;;5039948;28;20041;-61
2023/01/14 08:29:10;;;;;;;24.15;5.10;;;10.10;21.30;;;;;;5056109;28;20037;-61
2023/01/14 08:31:35;;;;;;;14.13;3.58;;;9.70;60.30;;;;;;5048587;28;20426;-61
2023/01/14 08:34:01;;;;;;;19.27;4.07;;;9.20;61.20;;;;;;5036463;28;20116;-61
2023/01/14 08:36:26;;;;;;;23.00;4.40;;;8.80;59.50;;;;;;5042424;28;20120;-61
2023/01/14 08:38:53;;;;;;;25.35;4.57;;;8.60;99.90;;;;;;5047303;28;20025;-61
2023/01/14 08:41:19;;;;;;;21.42;4.05;;;9.50;99.90;;;;;;5037699;28;20487;-61
2023/01/14 08:43:48;;;;;;;20.40;4.07;;;10.40;99.90;;;;;;5036320;28;20099;-61
2023/01/14 08:46:14;;;;;;;22.52;4.30;;;9.70;99.90;;;;;;5040242;28;20041;-61
2023/01/14 08:48:39;;;;;;;20.92;4.80;;;8.90;99.90;;;;;;5047004;28;20037;-64
2023/01/14 08:51:10;;;;;;;20.95;4.70;;;9.90;99.90;;;;;;5035040;28;20450;-62
2023/01/14 08:53:37;;;;;;;24.75;4.70;;;10.70;99.90;;;;;;5049382;28;20040;-61
2023/01/14 08:56:05;;;;;;;22.13;5.00;;;8.50;99.90;;;;;;5045231;28;20491;-61
2023/01/14 08:58:32;;;;;;;16.00;4.13;;;8.50;1.00;;;;;;5052764;28;20045;-62
2023/01/14 09:00:58;;;;;;;12.48;3.25;;;10.10;1.00;;;;;;5045781;28;20100;-62
2023/01/14 09:03:25;;;;;;;15.50;4.20;;;10.70;1.00;;;;;;5037828;28;20033;-61
2023/01/14 09:05:59;;;;;;;22.48;4.13;;;8.50;57.90;;;;;;5036350;28;20108;-61
2023/01/14 09:19:29;;;;;;;22.45;4.38;;;9.30;99.90;;;;;;5034705;28;20041;-62
2023/01/14 09:21:55;;;;;;;21.17;3.83;;;10.90;99.90;;;;;;5054434;28;20118;-61
2023/01/14 09:24:21;;;;;;;16.73;4.20;;;10.90;99.90;;;;;;5052927;28;20072;-62
2023/01/14 09:26:46;;;;;;;16.17;3.92;;;8.40;1.00;;;;;;5051307;28;20045;-62
2023/01/14 09:29:12;;;;;;;18.20;3.63;;;9.70;1.00;;;;;;5053551;28;20418;-62
2023/01/14 09:31:37;;;;;;;15.98;4.03;;;10.70;1.00;;;;;;5044282;28;20375;-62
2023/01/14 09:34:03;;;;;;;10.60;3.13;;;8.40;47.10;;;;;;5055482;28;20457;-62
2023/01/14 09:36:29;;;;;;;13.90;3.65;;;9.40;93.80;;;;;;5054355;28;20496;-62
2023/01/14 09:38:55;;;;;;;8.45;2.80;;;10.80;99.90;;;;;;5042540;28;20128;-62
2023/01/14 09:41:33;;;;;;;15.10;3.78;;;10.60;99.90;;;;;;5035075;28;20468;-62
2023/01/14 09:44:00;;;;;;;7.10;2.67;;;8.50;99.90;;;;;;5035089;28;20033;-62
2023/01/14 09:46:27;;;;;;;8.32;2.78;;;11.20;1.00;;;;;;5035153;28;20382;-62
2023/01/14 09:48:55;;;;;;;9.88;3.08;;;11.30;1.00;;;;;;5035170;28;20045;-61
2023/01/14 09:51:46;;;;;;;12.20;2.90;;;8.70;1.00;;;;;;5035327;28;20041;-61
2023/01/14 09:54:18;;;;;;;13.32;3.28;;;8.90;1.00;;;;;;5034957;28;20120;-62
2023/01/14 09:56:56;;;;;;;8.27;2.88;;;10.80;82.50;;;;;;5036627;28;20049;-62
2023/01/14 09:59:50;;;;;;;13.82;3.95;;;10.80;99.90;;;;;;5050384;28;20491;-61
2023/01/14 10:02:20;;;;;;;11.30;3.30;;;9.20;99.90;;;;;;5035662;28;20052;-61
2023/01/14 10:04:58;;;;;;;10.57;3.00;;;11.60;99.90;;;;;;5033493;28;20111;-61
2023/01/14 10:07:23;;;;;;;8.20;2.60;;;9.60;1.00;;;;;;5039237;28;20049;-62
2023/01/14 10:09:53;;;;;;;9.23;2.58;;;11.30;1.00;;;;;;5035704;28;20053;-62
2023/01/14 10:12:25;;;;;;;7.93;3.15;;;11.70;1.00;;;;;;5034668;28;20112;-61
2023/01/14 10:15:13;;;;;;;13.38;3.47;;;9.80;1.00;;;;;;5040745;28;20037;-61
2023/01/14 10:17:43;;;;;;;7.85;3.03;;;10.40;12.00;;;;;;5044070;28;20570;-61
2023/01/14 10:20:55;;;;;;;6.78;2.50;;;11.80;92.30;;;;;;5048234;28;20602;-61
2023/01/14 10:23:36;;;;;;;5.03;2.33;;;9.50;99.90;;;;;;5032839;28;20590;-61
2023/01/14 10:26:09;;;;;;;12.98;3.08;;;9.60;99.90;;;;;;5041263;28;20040;-62
2023/01/14 10:28:35;;;;;;;5.10;2.08;;;9.80;1.00;;;;;;5040651;28;20517;-61
2023/01/14 10:31:02;;;;;;;3.22;2.03;;;11.80;1.00;;;;;;5037358;28;20045;-61
2023/01/14 10:33:27;;;;;;;6.80;2.22;;;11.90;1.00;;;;;;5034490;28;20045;-61
2023/01/14 10:36:01;;;;;;;4.50;2.35;;;9.50;1.00;;;;;;5036597;28;20033;-61
2023/01/14 10:38:27;;;;;;;3.83;2.00;;;11.70;1.00;;;;;;5049504;28;20037;-62
2023/01/14 10:40:58;;;;;;;7.15;2.20;;;10.60;1.00;;;;;;5053593;28;20040;-61
2023/01/14 10:43:29;;;;;;;8.18;2.38;;;12.10;92.80;;;;;;5053895;28;20124;-62
2023/01/14 10:45:55;;;;;;;3.22;1.73;;;11.90;99.90;;;;;;5051152;28;20047;-62
2023/01/14 10:48:22;;;;;;;5.18;2.00;;;11.10;99.90;;;;;;5041050;28;20473;-62
2023/01/14 10:50:48;;;;;;;2.90;1.67;;;9.40;99.90;;;;;;5053636;28;20045;-63
2023/01/14 10:53:23;;;;;;;3.55;1.65;;;11.40;99.90;;;;;;5053564;28;20074;-62
2023/01/14 10:55:56;;;;;;;3.08;1.50;;;10.00;99.90;;;;;;5052105;28;20632;-61
2023/01/14 10:58:30;;;;;;;3.90;1.65;;;12.20;99.90;;;;;;5039006;28;20037;-61
2023/01/14 11:01:05;;;;;;;2.78;1.42;;;11.90;1.00;;;;;;5048147;28;20025;-61
2023/01/14 11:03:42;;;;;;;5.68;1.70;;;12.20;1.00;;;;;;5053933;28;20037;-62
2023/01/14 11:06:13;;;;;;;6.32;2.13;;;11.10;38.10;;;;;;5053294;28;20605;-61
2023/01/14 11:08:49;;;;;;;3.60;1.58;;;11.20;99.90;;;;;;5040370;28;20090;-62
2023/01/14 11:11:22;;;;;;;4.20;1.83;;;9.60;99.90;;;;;;5053162;28;20049;-61
2023/01/14 11:13:50;;;;;;;5.05;2.05;;;12.40;99.90;;;;;;5053029;28;20037;-62
2023/01/14 11:16:25;;;;;;;3.47;1.90;;;9.40;99.90;;;;;;5033421;28;20052;-61
2023/01/14 11:19:14;;;;;;;2.35;1.45;;;9.60;99.90;;;;;;5033713;28;20069;-61
2023/01/14 11:21:52;;;;;;;6.35;1.60;;;11.60;99.90;;;;;;5033333;28;20037;-62
2023/01/14 11:24:37;;;;;;;3.15;2.00;;;10.60;99.90;;;;;;5037050;28;20087;-62
2023/01/14 11:27:06;;;;;;;4.90;2.17;;;12.60;1.00;;;;;;5051457;28;20089;-62
2023/01/14 11:29:36;;;;;;;3.80;1.83;;;9.70;39.30;;;;;;5050173;28;20045;-62
2023/01/14 11:32:10;;;;;;;2.00;1.52;;;10.10;58.80;;;;;;5052835;28;20044;-61
2023/01/14 11:34:44;;;;;;;3.75;2.00;;;10.70;99.90;;;;;;5050158;28;20033;-61
2023/01/14 11:37:10;;;;;;;4.72;1.83;;;12.10;99.90;;;;;;5033027;28;20048;-62
2023/01/14 11:39:56;;;;;;;5.22;2.08;;;12.10;99.90;;;;;;5030352;28;20037;-62
2023/01/14 11:42:34;;;;;;;2.88;1.52;;;12.90;99.90;;;;;;5031795;28;20045;-62
2023/01/14 11:45:01;;;;;;;2.40;1.52;;;12.20;1.00;;;;;;5042038;28;20048;-61
2023/01/14 11:47:29;;;;;;;5.18;1.90;;;11.40;1.00;;;;;;5049643;28;20044;-62
2023/01/14 11:50:16;;;;;;;4.43;2.13;;;10.50;86.70;;;;;;5039293;28;20456;-61
2023/01/14 11:52:57;;;;;;;3.70;1.90;;;13.10;99.90;;;;;;5050787;28;20037;-61
2023/01/14 11:55:23;;;;;;;2.78;1.65;;;13.20;99.90;;;;;;5033766;28;20045;-62
2023/01/14 11:57:49;;;;;;;4.47;1.80;;;11.60;99.90;;;;;;5032680;28;20045;-61
2023/01/14 12:00:15;;;;;;;2.47;1.70;;;13.10;99.90;;;;;;5032738;28;20422;-62
2023/01/14 12:02:44;;;;;;;5.88;2.03;;;11.50;99.90;;;;;;5032963;28;20033;-64
2023/01/14 12:05:13;;;;;;;2.65;1.48;;;13.50;99.90;;;;;;5038162;28;20060;-62
2023/01/14 12:07:48;;;;;;;3.72;1.38;;;13.20;99.90;;;;;;5051151;28;20061;-62
2023/01/14 12:10:32;;;;;;;3.22;1.50;;;12.80;99.90;;;;;;5052337;28;20044;-61
2023/01/14 12:18:50;;;;;;;3.17;1.63;;;12.60;99.90;;;;;;5052734;28;20077;-61
2023/01/14 12:21:22;;;;;;;1.83;1.55;;;12.90;99.90;;;;;;5033550;28;20044;-61
2023/01/14 12:23:56;;;;;;;2.55;1.55;;;11.20;99.90;;;;;;5032343;28;20040;-62
2023/01/14 12:26:32;;;;;;;3.38;1.58;;;12.40;99.90;;;;;;5035925;28;20483;-61
2023/01/14 12:29:03;;;;;;;2.38;1.58;;;12.50;99.90;;;;;;5032551;28;20041;-62
2023/01/14 12:31:35;;;;;;;2.03;1.30;;;13.10;99.90;;;;;;5032560;28;20032;-61
2023/01/14 12:34:27;;;;;;;2.30;1.30;;;13.00;99.90;;;;;;5032337;28;20048;-61
2023/01/14 12:37:15;;;;;;;3.92;1.70;;;13.00;99.90;;;;;;5049664;28;20049;-61
2023/01/14 12:45:44;;;;;;;3.17;1.83;;;12.00;99.90;;;;;;5038083;28;20541;-62
2023/01/14 12:48:12;;;;;;;3.08;1.67;;;11.70;99.90;;;;;;5052498;28;20053;-61
2023/01/14 12:50:45;;;;;;;1.83;1.58;;;13.20;99.90;;;;;;5050746;28;20041;-61
2023/01/14 12:53:19;;;;;;;2.38;1.40;;;13.60;99.90;;;;;;5051690;28;20136;-61
2023/01/14 12:55:47;;;;;;;2.63;1.48;;;12.00;99.90;;;;;;5045817;28;20051;-63
2023/01/14 12:58:20;;;;;;;3.33;1.40;;;11.70;99.90;;;;;;5051923;28;20044;-61
2023/01/14 13:00:52;;;;;;;2.08;1.33;;;12.60;99.90;;;;;;5055788;28;20044;-62
2023/01/14 13:03:32;;;;;;;4.00;1.95;;;13.60;99.90;;;;;;5055843;28;20418;-62
2023/01/14 13:06:08;;;;;;;3.40;1.67;;;12.00;99.90;;;;;;5044432;28;20116;-62
2023/01/14 13:08:35;;;;;;;2.35;1.50;;;12.00;99.90;;;;;;5035683;28;20115;-62
2023/01/14 13:11:16;;;;;;;2.15;1.38;;;12.60;99.90;;;;;;5036815;28;20042;-61
2023/01/14 13:13:51;;;;;;;3.28;1.65;;;12.00;99.90;;;;;;5035927;28;20029;-62
2023/01/14 13:16:41;;;;;;;1.65;1.40;;;13.60;99.90;;;;;;5048417;28;20475;-62
2023/01/14 13:19:25;;;;;;;3.50;1.38;;;13.80;99.90;;;;;;5050722;28;20037;-62
2023/01/14 13:22:09;;;;;;;2.65;1.50;;;12.90;99.90;;;;;;5034484;28;20041;-61
2023/01/14 13:24:35;;;;;;;1.85;1.40;;;13.10;99.90;;;;;;5034587;28;20037;-61
2023/01/14 13:27:40;;;;;;;2.58;1.38;;;12.70;99.90;;;;;;5039375;28;20037;-62
2023/01/14 13:30:17;;;;;;;1.88;1.38;;;12.80;99.90;;;;;;5031626;28;20041;-62
2023/01/14 13:33:06;;;;;;;3.08;1.40;;;14.40;99.90;;;;;;5032809;28;20041;-61
2023/01/14 13:35:33;;;;;;;2.33;1.20;;;13.80;99.90;;;;;;5035871;28;20099;-61
2023/01/14 13:38:18;;;;;;;7.78;2.10;;;14.40;99.90;;;;;;5042288;28;20037;-61
2023/01/14 13:41:06;;;;;;;4.15;1.50;;;13.80;99.90;;;;;;5020960;28;20041;-62
2023/01/14 13:43:35;;;;;;;2.22;1.27;;;13.70;99.90;;;;;;5037374;28;20033;-68
2023/01/14 13:46:06;;;;;;;4.00;1.63;;;14.60;99.90;;;;;;5036370;28;20130;-61